sensor_id;sensor_type;location;lat;lon;timestamp;P1;durP1;ratioP1;P2;durP2;ratioP2
55270;SDS011;41132;47.162;9.470;2022-08-02T00:02:17;2.95;;;1.38;;
55270;SDS011;41132;47.162;9.470;2022-08-02T00:04:43;4.40;;;1.88;;
55270;SDS011;41132;47.162;9.470;2022-08-02T00:07:08;4.18;;;1.85;;
55270;SDS011;41132;47.162;9.470;2022-08-02T00:09:33;3.72;;;1.60;;
55270;SDS011;41132;47.162;9.470;2022-08-02T00:11:59;4.05;;;1.67;;
55270;SDS011;41132;47.162;9.470;2022-08-02T00:14:24;4.97;;;2.58;;
55270;SDS011;41132;47.162;9.470;2022-08-02T00:16:50;4.72;;;1.80;;
55270;SDS011;41132;47.162;9.470;2022-08-02T00:19:15;5.68;;;1.90;;
55270;SDS011;41132;47.162;9.470;2022-08-02T00:21:40;5.72;;;1.88;;
55270;SDS011;41132;47.162;9.470;2022-08-02T00:24:06;4.20;;;1.73;;
55270;SDS011;41132;47.162;9.470;2022-08-02T00:26:31;4.55;;;1.83;;
55270;SDS011;41132;47.162;9.470;2022-08-02T00:28:57;6.22;;;1.98;;
55270;SDS011;41132;47.162;9.470;2022-08-02T00:31:22;5.22;;;2.03;;
55270;SDS011;41132;47.162;9.470;2022-08-02T00:33:48;4.20;;;1.88;;
55270;SDS011;41132;47.162;9.470;2022-08-02T00:36:13;6.15;;;2.20;;
55270;SDS011;41132;47.162;9.470;2022-08-02T00:38:39;5.07;;;2.08;;
55270;SDS011;41132;47.162;9.470;2022-08-02T00:41:09;4.63;;;2.28;;
55270;SDS011;41132;47.162;9.470;2022-08-02T00:43:36;5.25;;;2.00;;
55270;SDS011;41132;47.162;9.470;2022-08-02T00:46:01;4.45;;;2.05;;
55270;SDS011;41132;47.162;9.470;2022-08-02T00:48:26;7.32;;;2.60;;
55270;SDS011;41132;47.162;9.470;2022-08-02T00:50:52;4.70;;;2.10;;
55270;SDS011;41132;47.162;9.470;2022-08-02T00:53:17;4.63;;;2.30;;
55270;SDS011;41132;47.162;9.470;2022-08-02T00:55:42;5.28;;;1.83;;
55270;SDS011;41132;47.162;9.470;2022-08-02T00:58:08;5.35;;;2.03;;
55270;SDS011;41132;47.162;9.470;2022-08-02T01:00:33;3.90;;;1.95;;
55270;SDS011;41132;47.162;9.470;2022-08-02T01:02:59;3.90;;;1.70;;
55270;SDS011;41132;47.162;9.470;2022-08-02T01:05:24;4.32;;;1.92;;
55270;SDS011;41132;47.162;9.470;2022-08-02T01:07:49;4.55;;;2.00;;
55270;SDS011;41132;47.162;9.470;2022-08-02T01:10:15;4.30;;;1.77;;
55270;SDS011;41132;47.162;9.470;2022-08-02T01:12:40;4.72;;;1.80;;
55270;SDS011;41132;47.162;9.470;2022-08-02T01:15:08;5.68;;;2.25;;
55270;SDS011;41132;47.162;9.470;2022-08-02T01:29:07;4.60;;;2.08;;
55270;SDS011;41132;47.162;9.470;2022-08-02T01:31:58;4.55;;;1.90;;
55270;SDS011;41132;47.162;9.470;2022-08-02T01:34:42;5.70;;;2.00;;
55270;SDS011;41132;47.162;9.470;2022-08-02T01:37:15;7.35;;;1.88;;
55270;SDS011;41132;47.162;9.470;2022-08-02T01:39:44;4.13;;;1.90;;
55270;SDS011;41132;47.162;9.470;2022-08-02T01:42:12;5.72;;;1.80;;
55270;SDS011;41132;47.162;9.470;2022-08-02T01:44:40;4.05;;;1.90;;
55270;SDS011;41132;47.162;9.470;2022-08-02T01:47:13;4.72;;;2.25;;
55270;SDS011;41132;47.162;9.470;2022-08-02T01:49:43;3.50;;;1.75;;
55270;SDS011;41132;47.162;9.470;2022-08-02T01:52:10;6.03;;;2.08;;
55270;SDS011;41132;47.162;9.470;2022-08-02T01:54:48;4.80;;;1.63;;
55270;SDS011;41132;47.162;9.470;2022-08-02T01:57:26;4.22;;;1.80;;
55270;SDS011;41132;47.162;9.470;2022-08-02T01:59:58;3.30;;;1.60;;
55270;SDS011;41132;47.162;9.470;2022-08-02T02:02:24;5.72;;;1.80;;
55270;SDS011;41132;47.162;9.470;2022-08-02T02:04:52;4.07;;;1.77;;
55270;SDS011;41132;47.162;9.470;2022-08-02T02:07:20;3.85;;;1.70;;
55270;SDS011;41132;47.162;9.470;2022-08-02T02:09:46;4.20;;;1.85;;
55270;SDS011;41132;47.162;9.470;2022-08-02T02:12:14;4.07;;;1.70;;
55270;SDS011;41132;47.162;9.470;2022-08-02T02:14:41;3.92;;;1.70;;
55270;SDS011;41132;47.162;9.470;2022-08-02T02:17:08;4.28;;;1.80;;
55270;SDS011;41132;47.162;9.470;2022-08-02T02:19:35;3.97;;;1.52;;
55270;SDS011;41132;47.162;9.470;2022-08-02T02:22:02;3.92;;;1.70;;
55270;SDS011;41132;47.162;9.470;2022-08-02T02:24:28;3.80;;;1.77;;
55270;SDS011;41132;47.162;9.470;2022-08-02T02:26:54;5.45;;;2.20;;
55270;SDS011;41132;47.162;9.470;2022-08-02T02:29:20;4.07;;;1.70;;
55270;SDS011;41132;47.162;9.470;2022-08-02T02:31:48;3.78;;;1.60;;
55270;SDS011;41132;47.162;9.470;2022-08-02T02:37:02;4.85;;;1.60;;
55270;SDS011;41132;47.162;9.470;2022-08-02T02:39:30;4.68;;;2.00;;
55270;SDS011;41132;47.162;9.470;2022-08-02T02:41:58;5.32;;;1.90;;
55270;SDS011;41132;47.162;9.470;2022-08-02T02:44:27;4.32;;;1.80;;
55270;SDS011;41132;47.162;9.470;2022-08-02T02:46:54;3.55;;;1.63;;
55270;SDS011;41132;47.162;9.470;2022-08-02T02:49:22;5.70;;;1.80;;
55270;SDS011;41132;47.162;9.470;2022-08-02T02:51:48;3.97;;;1.70;;
55270;SDS011;41132;47.162;9.470;2022-08-02T02:54:15;3.65;;;1.60;;
55270;SDS011;41132;47.162;9.470;2022-08-02T02:56:42;5.90;;;1.90;;
55270;SDS011;41132;47.162;9.470;2022-08-02T02:59:09;3.97;;;1.80;;
55270;SDS011;41132;47.162;9.470;2022-08-02T03:01:38;4.40;;;1.85;;
55270;SDS011;41132;47.162;9.470;2022-08-02T03:04:05;3.65;;;1.67;;
55270;SDS011;41132;47.162;9.470;2022-08-02T03:06:32;4.32;;;1.70;;
55270;SDS011;41132;47.162;9.470;2022-08-02T03:08:58;4.20;;;1.65;;
55270;SDS011;41132;47.162;9.470;2022-08-02T03:11:23;3.97;;;1.67;;
55270;SDS011;41132;47.162;9.470;2022-08-02T03:13:53;4.97;;;1.70;;
55270;SDS011;41132;47.162;9.470;2022-08-02T03:16:21;3.67;;;1.80;;
55270;SDS011;41132;47.162;9.470;2022-08-02T03:18:46;4.70;;;1.90;;
55270;SDS011;41132;47.162;9.470;2022-08-02T03:21:12;4.95;;;2.00;;
55270;SDS011;41132;47.162;9.470;2022-08-02T03:23:39;4.05;;;1.80;;
55270;SDS011;41132;47.162;9.470;2022-08-02T03:26:06;4.97;;;2.17;;
55270;SDS011;41132;47.162;9.470;2022-08-02T03:28:33;4.38;;;1.88;;
55270;SDS011;41132;47.162;9.470;2022-08-02T03:30:59;5.93;;;1.70;;
55270;SDS011;41132;47.162;9.470;2022-08-02T03:33:25;3.50;;;1.58;;
55270;SDS011;41132;47.162;9.470;2022-08-02T03:35:55;4.18;;;1.65;;
55270;SDS011;41132;47.162;9.470;2022-08-02T03:38:23;3.78;;;1.70;;
55270;SDS011;41132;47.162;9.470;2022-08-02T03:40:49;6.70;;;2.00;;
55270;SDS011;41132;47.162;9.470;2022-08-02T03:43:15;3.35;;;1.58;;
55270;SDS011;41132;47.162;9.470;2022-08-02T03:45:42;5.00;;;1.75;;
55270;SDS011;41132;47.162;9.470;2022-08-02T03:48:11;3.92;;;1.70;;
55270;SDS011;41132;47.162;9.470;2022-08-02T03:50:37;4.70;;;1.90;;
55270;SDS011;41132;47.162;9.470;2022-08-02T03:53:05;7.00;;;2.05;;
55270;SDS011;41132;47.162;9.470;2022-08-02T03:55:32;4.88;;;2.00;;
55270;SDS011;41132;47.162;9.470;2022-08-02T03:57:58;3.88;;;1.83;;
55270;SDS011;41132;47.162;9.470;2022-08-02T04:00:24;5.45;;;1.80;;
55270;SDS011;41132;47.162;9.470;2022-08-02T04:02:49;3.97;;;1.73;;
55270;SDS011;41132;47.162;9.470;2022-08-02T04:05:15;4.90;;;1.50;;
55270;SDS011;41132;47.162;9.470;2022-08-02T04:07:41;4.57;;;1.58;;
55270;SDS011;41132;47.162;9.470;2022-08-02T04:10:07;4.03;;;1.80;;
55270;SDS011;41132;47.162;9.470;2022-08-02T04:12:33;4.18;;;1.80;;
55270;SDS011;41132;47.162;9.470;2022-08-02T04:14:59;3.47;;;1.55;;
55270;SDS011;41132;47.162;9.470;2022-08-02T04:17:26;4.10;;;1.70;;
55270;SDS011;41132;47.162;9.470;2022-08-02T04:19:57;4.35;;;1.63;;
55270;SDS011;41132;47.162;9.470;2022-08-02T04:22:34;4.28;;;1.50;;
55270;SDS011;41132;47.162;9.470;2022-08-02T04:25:07;10.35;;;2.03;;
55270;SDS011;41132;47.162;9.470;2022-08-02T04:27:34;3.65;;;1.60;;
55270;SDS011;41132;47.162;9.470;2022-08-02T04:30:03;4.25;;;1.60;;
55270;SDS011;41132;47.162;9.470;2022-08-02T04:32:30;6.30;;;1.90;;
55270;SDS011;41132;47.162;9.470;2022-08-02T04:34:56;4.10;;;1.70;;
55270;SDS011;41132;47.162;9.470;2022-08-02T04:37:22;3.63;;;1.45;;
55270;SDS011;41132;47.162;9.470;2022-08-02T04:39:47;4.57;;;1.88;;
55270;SDS011;41132;47.162;9.470;2022-08-02T04:42:22;7.25;;;1.85;;
55270;SDS011;41132;47.162;9.470;2022-08-02T04:44:49;3.13;;;1.40;;
55270;SDS011;41132;47.162;9.470;2022-08-02T04:47:15;3.63;;;1.55;;
55270;SDS011;41132;47.162;9.470;2022-08-02T04:49:41;3.78;;;1.60;;
55270;SDS011;41132;47.162;9.470;2022-08-02T04:52:06;6.03;;;1.77;;
55270;SDS011;41132;47.162;9.470;2022-08-02T04:54:32;3.05;;;1.40;;
55270;SDS011;41132;47.162;9.470;2022-08-02T04:56:57;8.25;;;2.45;;
55270;SDS011;41132;47.162;9.470;2022-08-02T04:59:23;4.65;;;1.70;;
55270;SDS011;41132;47.162;9.470;2022-08-02T05:01:48;3.17;;;1.42;;
55270;SDS011;41132;47.162;9.470;2022-08-02T05:04:13;4.70;;;1.58;;
55270;SDS011;41132;47.162;9.470;2022-08-02T05:06:39;4.65;;;1.88;;
55270;SDS011;41132;47.162;9.470;2022-08-02T05:09:04;4.20;;;1.73;;
55270;SDS011;41132;47.162;9.470;2022-08-02T05:11:29;4.35;;;1.63;;
55270;SDS011;41132;47.162;9.470;2022-08-02T05:13:55;4.18;;;1.75;;
55270;SDS011;41132;47.162;9.470;2022-08-02T05:16:21;4.30;;;1.60;;
55270;SDS011;41132;47.162;9.470;2022-08-02T05:18:46;4.13;;;1.63;;
55270;SDS011;41132;47.162;9.470;2022-08-02T05:21:12;3.90;;;1.60;;
55270;SDS011;41132;47.162;9.470;2022-08-02T05:23:37;6.10;;;1.60;;
55270;SDS011;41132;47.162;9.470;2022-08-02T05:26:02;3.85;;;1.70;;
55270;SDS011;41132;47.162;9.470;2022-08-02T05:28:28;4.45;;;1.73;;
55270;SDS011;41132;47.162;9.470;2022-08-02T05:30:53;4.10;;;1.65;;
55270;SDS011;41132;47.162;9.470;2022-08-02T05:33:18;6.03;;;1.90;;
55270;SDS011;41132;47.162;9.470;2022-08-02T05:35:44;4.35;;;1.88;;
55270;SDS011;41132;47.162;9.470;2022-08-02T05:38:09;4.00;;;1.70;;
55270;SDS011;41132;47.162;9.470;2022-08-02T05:40:35;3.50;;;1.48;;
55270;SDS011;41132;47.162;9.470;2022-08-02T05:43:00;4.97;;;2.00;;
55270;SDS011;41132;47.162;9.470;2022-08-02T05:45:25;4.15;;;1.67;;
55270;SDS011;41132;47.162;9.470;2022-08-02T05:47:51;4.05;;;1.55;;
55270;SDS011;41132;47.162;9.470;2022-08-02T05:50:17;4.90;;;2.03;;
55270;SDS011;41132;47.162;9.470;2022-08-02T05:55:16;4.55;;;2.00;;
55270;SDS011;41132;47.162;9.470;2022-08-02T06:00:08;4.22;;;1.92;;
55270;SDS011;41132;47.162;9.470;2022-08-02T06:05:13;3.70;;;1.50;;
55270;SDS011;41132;47.162;9.470;2022-08-02T06:07:41;4.90;;;1.73;;
55270;SDS011;41132;47.162;9.470;2022-08-02T06:10:08;5.63;;;1.98;;
55270;SDS011;41132;47.162;9.470;2022-08-02T06:15:18;4.18;;;1.98;;
55270;SDS011;41132;47.162;9.470;2022-08-02T06:17:44;4.07;;;1.70;;
55270;SDS011;41132;47.162;9.470;2022-08-02T06:20:10;3.53;;;1.80;;
55270;SDS011;41132;47.162;9.470;2022-08-02T06:22:39;4.97;;;1.85;;
55270;SDS011;41132;47.162;9.470;2022-08-02T06:25:06;6.18;;;1.75;;
55270;SDS011;41132;47.162;9.470;2022-08-02T06:27:33;4.07;;;1.83;;
55270;SDS011;41132;47.162;9.470;2022-08-02T06:29:59;2.83;;;1.40;;
55270;SDS011;41132;47.162;9.470;2022-08-02T06:32:26;3.15;;;1.70;;
55270;SDS011;41132;47.162;9.470;2022-08-02T06:34:51;4.10;;;1.80;;
55270;SDS011;41132;47.162;9.470;2022-08-02T06:37:19;3.03;;;1.50;;
55270;SDS011;41132;47.162;9.470;2022-08-02T06:45:33;2.95;;;1.30;;
55270;SDS011;41132;47.162;9.470;2022-08-02T06:47:59;6.78;;;1.70;;
55270;SDS011;41132;47.162;9.470;2022-08-02T06:50:25;5.05;;;1.70;;
55270;SDS011;41132;47.162;9.470;2022-08-02T06:52:50;3.08;;;1.40;;
55270;SDS011;41132;47.162;9.470;2022-08-02T06:55:16;3.47;;;1.50;;
55270;SDS011;41132;47.162;9.470;2022-08-02T06:57:41;3.53;;;1.50;;
55270;SDS011;41132;47.162;9.470;2022-08-02T07:00:07;3.30;;;1.40;;
55270;SDS011;41132;47.162;9.470;2022-08-02T07:02:34;3.22;;;1.50;;
55270;SDS011;41132;47.162;9.470;2022-08-02T07:05:01;2.67;;;1.25;;
55270;SDS011;41132;47.162;9.470;2022-08-02T07:07:27;3.80;;;1.30;;
55270;SDS011;41132;47.162;9.470;2022-08-02T07:09:53;3.53;;;1.35;;
55270;SDS011;41132;47.162;9.470;2022-08-02T07:12:19;4.18;;;1.58;;
55270;SDS011;41132;47.162;9.470;2022-08-02T07:14:44;2.65;;;1.35;;
55270;SDS011;41132;47.162;9.470;2022-08-02T07:17:10;2.95;;;1.40;;
55270;SDS011;41132;47.162;9.470;2022-08-02T07:19:36;4.47;;;1.42;;
55270;SDS011;41132;47.162;9.470;2022-08-02T07:22:01;3.42;;;1.52;;
55270;SDS011;41132;47.162;9.470;2022-08-02T07:24:27;4.13;;;1.42;;
55270;SDS011;41132;47.162;9.470;2022-08-02T07:26:52;2.90;;;1.33;;
55270;SDS011;41132;47.162;9.470;2022-08-02T07:29:17;2.35;;;1.20;;
55270;SDS011;41132;47.162;9.470;2022-08-02T07:31:43;2.65;;;1.30;;
55270;SDS011;41132;47.162;9.470;2022-08-02T07:34:08;3.08;;;1.23;;
55270;SDS011;41132;47.162;9.470;2022-08-02T07:36:33;1.45;;;0.85;;
55270;SDS011;41132;47.162;9.470;2022-08-02T07:38:59;2.80;;;1.17;;
55270;SDS011;41132;47.162;9.470;2022-08-02T07:41:24;2.70;;;1.67;;
55270;SDS011;41132;47.162;9.470;2022-08-02T07:43:50;2.50;;;1.17;;
55270;SDS011;41132;47.162;9.470;2022-08-02T07:46:15;2.38;;;1.10;;
55270;SDS011;41132;47.162;9.470;2022-08-02T07:48:40;2.92;;;1.20;;
55270;SDS011;41132;47.162;9.470;2022-08-02T07:51:06;2.15;;;1.20;;
55270;SDS011;41132;47.162;9.470;2022-08-02T07:53:31;3.35;;;1.30;;
55270;SDS011;41132;47.162;9.470;2022-08-02T07:55:57;2.92;;;1.40;;
55270;SDS011;41132;47.162;9.470;2022-08-02T07:58:22;3.30;;;1.30;;
55270;SDS011;41132;47.162;9.470;2022-08-02T08:00:48;2.83;;;1.30;;
55270;SDS011;41132;47.162;9.470;2022-08-02T08:03:13;9.75;;;1.75;;
55270;SDS011;41132;47.162;9.470;2022-08-02T08:05:38;2.35;;;1.10;;
55270;SDS011;41132;47.162;9.470;2022-08-02T08:08:04;2.20;;;1.20;;
55270;SDS011;41132;47.162;9.470;2022-08-02T08:10:30;3.13;;;1.40;;
55270;SDS011;41132;47.162;9.470;2022-08-02T08:12:56;2.70;;;1.20;;
55270;SDS011;41132;47.162;9.470;2022-08-02T08:15:21;2.30;;;1.15;;
55270;SDS011;41132;47.162;9.470;2022-08-02T08:17:47;2.85;;;1.20;;
55270;SDS011;41132;47.162;9.470;2022-08-02T08:20:12;2.55;;;1.20;;
55270;SDS011;41132;47.162;9.470;2022-08-02T08:22:38;2.88;;;1.00;;
55270;SDS011;41132;47.162;9.470;2022-08-02T08:25:03;2.45;;;1.08;;
55270;SDS011;41132;47.162;9.470;2022-08-02T08:27:29;5.78;;;1.27;;
55270;SDS011;41132;47.162;9.470;2022-08-02T08:29:54;3.28;;;1.30;;
55270;SDS011;41132;47.162;9.470;2022-08-02T08:32:20;2.42;;;1.17;;
55270;SDS011;41132;47.162;9.470;2022-08-02T08:34:45;1.95;;;1.10;;
55270;SDS011;41132;47.162;9.470;2022-08-02T08:37:11;2.95;;;1.20;;
55270;SDS011;41132;47.162;9.470;2022-08-02T08:39:36;2.28;;;1.00;;
55270;SDS011;41132;47.162;9.470;2022-08-02T08:42:04;2.50;;;1.15;;
55270;SDS011;41132;47.162;9.470;2022-08-02T08:44:31;4.15;;;1.10;;
55270;SDS011;41132;47.162;9.470;2022-08-02T08:46:57;2.97;;;1.00;;
55270;SDS011;41132;47.162;9.470;2022-08-02T08:49:26;2.13;;;1.13;;
55270;SDS011;41132;47.162;9.470;2022-08-02T08:51:54;3.92;;;1.40;;
55270;SDS011;41132;47.162;9.470;2022-08-02T08:54:22;3.28;;;1.10;;
55270;SDS011;41132;47.162;9.470;2022-08-02T08:56:52;2.30;;;1.13;;
55270;SDS011;41132;47.162;9.470;2022-08-02T08:59:19;1.80;;;1.00;;
55270;SDS011;41132;47.162;9.470;2022-08-02T09:01:44;2.92;;;1.08;;
55270;SDS011;41132;47.162;9.470;2022-08-02T09:04:10;1.25;;;0.90;;
55270;SDS011;41132;47.162;9.470;2022-08-02T09:06:37;2.45;;;1.00;;
55270;SDS011;41132;47.162;9.470;2022-08-02T09:09:03;1.80;;;1.00;;
55270;SDS011;41132;47.162;9.470;2022-08-02T09:11:29;1.27;;;0.90;;
55270;SDS011;41132;47.162;9.470;2022-08-02T09:13:55;1.42;;;0.90;;
55270;SDS011;41132;47.162;9.470;2022-08-02T09:16:30;1.65;;;0.90;;
55270;SDS011;41132;47.162;9.470;2022-08-02T09:18:58;2.05;;;0.90;;
55270;SDS011;41132;47.162;9.470;2022-08-02T09:21:32;1.67;;;0.93;;
55270;SDS011;41132;47.162;9.470;2022-08-02T09:24:01;4.45;;;1.23;;
55270;SDS011;41132;47.162;9.470;2022-08-02T09:26:26;2.50;;;0.95;;
55270;SDS011;41132;47.162;9.470;2022-08-02T09:28:59;1.70;;;1.05;;
55270;SDS011;41132;47.162;9.470;2022-08-02T09:31:26;2.50;;;1.02;;
55270;SDS011;41132;47.162;9.470;2022-08-02T09:33:55;1.70;;;0.90;;
55270;SDS011;41132;47.162;9.470;2022-08-02T09:36:22;2.05;;;0.98;;
55270;SDS011;41132;47.162;9.470;2022-08-02T09:38:53;2.17;;;1.00;;
55270;SDS011;41132;47.162;9.470;2022-08-02T09:41:23;2.97;;;1.10;;
55270;SDS011;41132;47.162;9.470;2022-08-02T09:43:53;5.47;;;1.10;;
55270;SDS011;41132;47.162;9.470;2022-08-02T09:46:21;2.25;;;1.05;;
55270;SDS011;41132;47.162;9.470;2022-08-02T09:48:55;2.88;;;1.10;;
55270;SDS011;41132;47.162;9.470;2022-08-02T09:51:23;3.42;;;1.10;;
55270;SDS011;41132;47.162;9.470;2022-08-02T09:53:54;3.08;;;1.10;;
55270;SDS011;41132;47.162;9.470;2022-08-02T09:56:22;2.63;;;1.02;;
55270;SDS011;41132;47.162;9.470;2022-08-02T09:58:48;2.92;;;1.00;;
55270;SDS011;41132;47.162;9.470;2022-08-02T10:01:16;2.70;;;1.13;;
55270;SDS011;41132;47.162;9.470;2022-08-02T10:03:53;2.03;;;0.90;;
55270;SDS011;41132;47.162;9.470;2022-08-02T10:06:20;2.67;;;1.20;;
55270;SDS011;41132;47.162;9.470;2022-08-02T10:08:45;1.65;;;1.08;;
55270;SDS011;41132;47.162;9.470;2022-08-02T10:11:11;2.17;;;1.15;;
55270;SDS011;41132;47.162;9.470;2022-08-02T10:13:36;2.85;;;1.20;;
55270;SDS011;41132;47.162;9.470;2022-08-02T10:16:02;2.63;;;1.20;;
55270;SDS011;41132;47.162;9.470;2022-08-02T10:18:30;3.60;;;1.10;;
55270;SDS011;41132;47.162;9.470;2022-08-02T10:20:56;2.72;;;1.30;;
55270;SDS011;41132;47.162;9.470;2022-08-02T10:23:25;3.83;;;1.10;;
55270;SDS011;41132;47.162;9.470;2022-08-02T10:25:53;2.42;;;1.10;;
55270;SDS011;41132;47.162;9.470;2022-08-02T10:28:22;2.85;;;1.30;;
55270;SDS011;41132;47.162;9.470;2022-08-02T10:30:53;2.28;;;1.30;;
55270;SDS011;41132;47.162;9.470;2022-08-02T10:33:20;5.20;;;1.30;;
55270;SDS011;41132;47.162;9.470;2022-08-02T10:35:50;5.00;;;1.33;;
55270;SDS011;41132;47.162;9.470;2022-08-02T10:38:18;4.07;;;1.30;;
55270;SDS011;41132;47.162;9.470;2022-08-02T10:40:45;2.15;;;1.17;;
55270;SDS011;41132;47.162;9.470;2022-08-02T10:43:18;2.47;;;1.10;;
55270;SDS011;41132;47.162;9.470;2022-08-02T10:49:08;3.47;;;1.40;;
55270;SDS011;41132;47.162;9.470;2022-08-02T10:56:55;2.65;;;1.08;;
55270;SDS011;41132;47.162;9.470;2022-08-02T10:59:26;2.67;;;1.20;;
55270;SDS011;41132;47.162;9.470;2022-08-02T11:01:57;3.13;;;1.15;;
55270;SDS011;41132;47.162;9.470;2022-08-02T11:05:09;2.53;;;1.23;;
55270;SDS011;41132;47.162;9.470;2022-08-02T11:07:19;3.00;;;1.15;;
55270;SDS011;41132;47.162;9.470;2022-08-02T11:09:55;3.03;;;1.30;;
55270;SDS011;41132;47.162;9.470;2022-08-02T11:12:21;2.30;;;1.10;;
55270;SDS011;41132;47.162;9.470;2022-08-02T11:15:00;2.20;;;1.10;;
55270;SDS011;41132;47.162;9.470;2022-08-02T11:17:50;3.53;;;1.40;;
55270;SDS011;41132;47.162;9.470;2022-08-02T11:20:24;2.28;;;1.20;;
55270;SDS011;41132;47.162;9.470;2022-08-02T11:22:51;3.15;;;1.30;;
55270;SDS011;41132;47.162;9.470;2022-08-02T11:28:19;4.13;;;1.50;;
55270;SDS011;41132;47.162;9.470;2022-08-02T11:30:38;3.85;;;1.02;;
55270;SDS011;41132;47.162;9.470;2022-08-02T11:33:03;3.65;;;1.30;;
55270;SDS011;41132;47.162;9.470;2022-08-02T11:35:36;2.55;;;1.10;;
55270;SDS011;41132;47.162;9.470;2022-08-02T11:38:16;2.53;;;1.17;;
55270;SDS011;41132;47.162;9.470;2022-08-02T11:40:44;3.78;;;1.10;;
55270;SDS011;41132;47.162;9.470;2022-08-02T11:43:17;3.25;;;1.42;;
55270;SDS011;41132;47.162;9.470;2022-08-02T11:45:43;3.10;;;1.30;;
55270;SDS011;41132;47.162;9.470;2022-08-02T11:48:09;3.45;;;1.40;;
55270;SDS011;41132;47.162;9.470;2022-08-02T11:50:34;2.83;;;1.40;;
55270;SDS011;41132;47.162;9.470;2022-08-02T11:53:00;2.00;;;1.15;;
55270;SDS011;41132;47.162;9.470;2022-08-02T11:55:29;2.67;;;1.20;;
55270;SDS011;41132;47.162;9.470;2022-08-02T11:57:59;4.28;;;1.45;;
55270;SDS011;41132;47.162;9.470;2022-08-02T12:00:25;3.38;;;1.60;;
55270;SDS011;41132;47.162;9.470;2022-08-02T12:02:51;4.07;;;1.60;;
55270;SDS011;41132;47.162;9.470;2022-08-02T12:05:17;6.25;;;1.80;;
55270;SDS011;41132;47.162;9.470;2022-08-02T12:07:45;3.65;;;1.80;;
55270;SDS011;41132;47.162;9.470;2022-08-02T12:10:15;5.38;;;1.70;;
55270;SDS011;41132;47.162;9.470;2022-08-02T12:12:52;4.35;;;1.63;;
55270;SDS011;41132;47.162;9.470;2022-08-02T12:15:34;4.38;;;1.70;;
55270;SDS011;41132;47.162;9.470;2022-08-02T12:18:02;4.78;;;1.98;;
55270;SDS011;41132;47.162;9.470;2022-08-02T12:20:51;4.07;;;1.70;;
55270;SDS011;41132;47.162;9.470;2022-08-02T12:23:16;4.75;;;1.83;;
55270;SDS011;41132;47.162;9.470;2022-08-02T12:25:42;3.83;;;1.77;;
55270;SDS011;41132;47.162;9.470;2022-08-02T12:28:14;4.28;;;1.88;;
55270;SDS011;41132;47.162;9.470;2022-08-02T12:30:48;4.95;;;1.98;;
55270;SDS011;41132;47.162;9.470;2022-08-02T12:33:19;4.80;;;1.77;;
55270;SDS011;41132;47.162;9.470;2022-08-02T12:35:45;4.40;;;1.90;;
55270;SDS011;41132;47.162;9.470;2022-08-02T12:38:11;4.88;;;1.95;;
55270;SDS011;41132;47.162;9.470;2022-08-02T12:40:37;5.18;;;1.98;;
55270;SDS011;41132;47.162;9.470;2022-08-02T12:43:03;4.25;;;2.05;;
55270;SDS011;41132;47.162;9.470;2022-08-02T12:45:31;4.20;;;1.90;;
55270;SDS011;41132;47.162;9.470;2022-08-02T12:48:09;4.72;;;2.15;;
55270;SDS011;41132;47.162;9.470;2022-08-02T12:50:34;3.53;;;1.70;;
55270;SDS011;41132;47.162;9.470;2022-08-02T12:53:11;4.10;;;1.85;;
55270;SDS011;41132;47.162;9.470;2022-08-02T12:55:54;7.20;;;2.00;;
55270;SDS011;41132;47.162;9.470;2022-08-02T12:58:21;4.30;;;1.80;;
55270;SDS011;41132;47.162;9.470;2022-08-02T13:00:54;5.45;;;2.10;;
55270;SDS011;41132;47.162;9.470;2022-08-02T13:03:22;15.15;;;3.33;;
55270;SDS011;41132;47.162;9.470;2022-08-02T13:05:48;6.32;;;2.72;;
55270;SDS011;41132;47.162;9.470;2022-08-02T13:08:13;6.82;;;2.10;;
55270;SDS011;41132;47.162;9.470;2022-08-02T13:10:39;5.00;;;1.80;;
55270;SDS011;41132;47.162;9.470;2022-08-02T13:13:05;4.13;;;1.90;;
55270;SDS011;41132;47.162;9.470;2022-08-02T13:15:30;5.00;;;2.35;;
55270;SDS011;41132;47.162;9.470;2022-08-02T13:17:56;7.95;;;2.97;;
55270;SDS011;41132;47.162;9.470;2022-08-02T13:20:23;5.78;;;2.17;;
55270;SDS011;41132;47.162;9.470;2022-08-02T13:22:52;5.55;;;2.08;;
55270;SDS011;41132;47.162;9.470;2022-08-02T13:25:17;4.10;;;1.70;;
55270;SDS011;41132;47.162;9.470;2022-08-02T13:27:46;5.47;;;1.52;;
55270;SDS011;41132;47.162;9.470;2022-08-02T13:30:12;4.72;;;1.88;;
55270;SDS011;41132;47.162;9.470;2022-08-02T13:32:38;4.90;;;1.95;;
55270;SDS011;41132;47.162;9.470;2022-08-02T13:35:03;3.63;;;1.58;;
55270;SDS011;41132;47.162;9.470;2022-08-02T13:37:29;3.08;;;1.50;;
55270;SDS011;41132;47.162;9.470;2022-08-02T13:39:54;5.82;;;1.90;;
55270;SDS011;41132;47.162;9.470;2022-08-02T13:42:20;7.88;;;2.47;;
55270;SDS011;41132;47.162;9.470;2022-08-02T13:44:46;5.13;;;1.95;;
55270;SDS011;41132;47.162;9.470;2022-08-02T13:47:12;3.78;;;1.83;;
55270;SDS011;41132;47.162;9.470;2022-08-02T13:49:37;4.25;;;1.85;;
55270;SDS011;41132;47.162;9.470;2022-08-02T13:52:03;4.25;;;1.85;;
55270;SDS011;41132;47.162;9.470;2022-08-02T13:54:29;3.85;;;1.80;;
55270;SDS011;41132;47.162;9.470;2022-08-02T13:56:55;3.67;;;1.88;;
55270;SDS011;41132;47.162;9.470;2022-08-02T13:59:20;4.43;;;1.98;;
55270;SDS011;41132;47.162;9.470;2022-08-02T14:01:45;6.25;;;2.05;;
55270;SDS011;41132;47.162;9.470;2022-08-02T14:04:11;3.35;;;1.60;;
55270;SDS011;41132;47.162;9.470;2022-08-02T14:06:36;4.20;;;1.92;;
55270;SDS011;41132;47.162;9.470;2022-08-02T14:09:02;6.25;;;2.05;;
55270;SDS011;41132;47.162;9.470;2022-08-02T14:11:27;3.80;;;1.80;;
55270;SDS011;41132;47.162;9.470;2022-08-02T14:13:54;4.28;;;1.80;;
55270;SDS011;41132;47.162;9.470;2022-08-02T14:16:20;3.67;;;1.80;;
55270;SDS011;41132;47.162;9.470;2022-08-02T14:18:45;4.45;;;2.10;;
55270;SDS011;41132;47.162;9.470;2022-08-02T14:21:11;3.95;;;1.85;;
55270;SDS011;41132;47.162;9.470;2022-08-02T14:23:36;4.28;;;1.80;;
55270;SDS011;41132;47.162;9.470;2022-08-02T14:26:01;4.28;;;1.95;;
55270;SDS011;41132;47.162;9.470;2022-08-02T14:28:29;4.25;;;1.85;;
55270;SDS011;41132;47.162;9.470;2022-08-02T14:30:55;3.65;;;1.92;;
55270;SDS011;41132;47.162;9.470;2022-08-02T14:33:20;5.18;;;2.00;;
55270;SDS011;41132;47.162;9.470;2022-08-02T14:35:46;4.75;;;2.17;;
55270;SDS011;41132;47.162;9.470;2022-08-02T14:38:11;4.60;;;2.22;;
55270;SDS011;41132;47.162;9.470;2022-08-02T14:40:36;4.18;;;2.10;;
55270;SDS011;41132;47.162;9.470;2022-08-02T14:43:02;4.30;;;1.90;;
55270;SDS011;41132;47.162;9.470;2022-08-02T14:45:28;5.70;;;2.35;;
55270;SDS011;41132;47.162;9.470;2022-08-02T14:47:54;3.83;;;1.77;;
55270;SDS011;41132;47.162;9.470;2022-08-02T14:50:20;3.72;;;1.77;;
55270;SDS011;41132;47.162;9.470;2022-08-02T14:52:46;4.65;;;2.05;;
55270;SDS011;41132;47.162;9.470;2022-08-02T14:55:13;4.13;;;1.80;;
55270;SDS011;41132;47.162;9.470;2022-08-02T14:57:40;5.00;;;1.90;;
55270;SDS011;41132;47.162;9.470;2022-08-02T15:00:05;4.80;;;2.03;;
55270;SDS011;41132;47.162;9.470;2022-08-02T15:02:32;4.70;;;2.05;;
55270;SDS011;41132;47.162;9.470;2022-08-02T15:04:57;4.07;;;1.92;;
55270;SDS011;41132;47.162;9.470;2022-08-02T15:07:22;3.58;;;1.60;;
55270;SDS011;41132;47.162;9.470;2022-08-02T15:09:48;3.42;;;1.55;;
55270;SDS011;41132;47.162;9.470;2022-08-02T15:12:13;5.13;;;1.90;;
55270;SDS011;41132;47.162;9.470;2022-08-02T15:14:39;4.25;;;2.00;;
55270;SDS011;41132;47.162;9.470;2022-08-02T15:17:05;4.18;;;1.67;;
55270;SDS011;41132;47.162;9.470;2022-08-02T15:19:31;4.13;;;2.00;;
55270;SDS011;41132;47.162;9.470;2022-08-02T15:21:57;3.95;;;1.98;;
55270;SDS011;41132;47.162;9.470;2022-08-02T15:24:23;3.67;;;1.60;;
55270;SDS011;41132;47.162;9.470;2022-08-02T15:26:49;3.70;;;1.75;;
55270;SDS011;41132;47.162;9.470;2022-08-02T15:29:18;4.60;;;2.13;;
55270;SDS011;41132;47.162;9.470;2022-08-02T15:31:44;4.20;;;1.70;;